Time;durP1;ratioP1;P1;durP2;ratioP2;P2;SDS_P1;SDS_P2;PMS_P1;PMS_P2;Temp;Humidity;BMP_temperature;BMP_pressure;BME280_temperature;BME280_humidity;BME280_pressure;Samples;Min_cycle;Max_cycle;Signal;HPM_P1;HPM_P2
2023/04/23 00:01:05;;;;;;;2.55;1.55;;;8.90;99.90;;;;;;5096398;28;20039;-81
2023/04/23 00:03:33;;;;;;;3.83;1.63;;;8.90;99.90;;;;;;5077874;28;20043;-81
2023/04/23 00:06:02;;;;;;;3.47;2.00;;;8.70;99.90;;;;;;5077609;28;20036;-81
2023/04/23 00:08:29;;;;;;;2.42;1.83;;;8.50;99.90;;;;;;5061192;28;20107;-81
2023/04/23 00:10:55;;;;;;;4.53;2.17;;;8.40;99.90;;;;;;5095798;28;20398;-81
2023/04/23 00:13:21;;;;;;;3.35;1.52;;;8.30;99.90;;;;;;5094711;28;20028;-81
2023/04/23 00:15:47;;;;;;;3.40;2.15;;;8.30;99.90;;;;;;5104340;28;20467;-81
2023/04/23 00:18:12;;;;;;;2.63;1.58;;;8.30;99.90;;;;;;5096808;28;20043;-81
2023/04/23 00:20:38;;;;;;;2.90;1.50;;;8.40;99.90;;;;;;5065980;28;20040;-81
2023/04/23 00:23:04;;;;;;;5.10;1.80;;;8.40;99.90;;;;;;5094267;28;20044;-81
2023/04/23 00:25:30;;;;;;;2.92;1.45;;;8.50;99.90;;;;;;5100042;28;20058;-81
2023/04/23 00:27:55;;;;;;;4.07;1.88;;;8.50;99.90;;;;;;5084395;28;20482;-81
2023/04/23 00:30:21;;;;;;;3.53;1.60;;;8.50;99.90;;;;;;5069834;27;20039;-81
2023/04/23 00:32:47;;;;;;;4.13;1.70;;;8.50;99.90;;;;;;5078582;28;20044;-82
2023/04/23 00:35:13;;;;;;;4.00;1.98;;;8.40;99.90;;;;;;5111041;27;20035;-81
2023/04/23 00:37:38;;;;;;;2.83;1.63;;;8.30;99.90;;;;;;5078875;28;20051;-82
2023/04/23 00:40:06;;;;;;;2.80;1.55;;;8.30;99.90;;;;;;5094201;28;20059;-81
2023/04/23 00:42:32;;;;;;;4.70;1.90;;;8.20;99.90;;;;;;5047552;27;20032;-81
2023/04/23 00:45:00;;;;;;;3.97;2.08;;;8.20;99.90;;;;;;5112583;27;20392;-81
2023/04/23 00:47:28;;;;;;;3.83;1.85;;;8.20;99.90;;;;;;5096670;28;20059;-81
2023/04/23 00:49:55;;;;;;;2.55;1.55;;;8.20;99.90;;;;;;5101482;28;20028;-81
2023/04/23 00:52:20;;;;;;;3.95;1.90;;;8.20;99.90;;;;;;5094952;28;20043;-81
2023/04/23 00:54:46;;;;;;;3.63;2.03;;;8.20;99.90;;;;;;5092583;28;20135;-81
2023/04/23 00:57:12;;;;;;;4.25;2.20;;;8.20;99.90;;;;;;5092680;28;20032;-81
2023/04/23 00:59:38;;;;;;;4.78;1.95;;;8.20;99.90;;;;;;5093210;28;20052;-81
2023/04/23 01:02:04;;;;;;;4.05;2.05;;;8.20;99.90;;;;;;5070501;28;20039;-81
2023/04/23 01:04:31;;;;;;;3.50;1.90;;;8.20;99.90;;;;;;5079356;28;20065;-84
2023/04/23 01:06:58;;;;;;;3.78;2.00;;;8.20;99.90;;;;;;5082321;28;20047;-84
2023/04/23 01:09:26;;;;;;;4.68;2.05;;;8.20;99.90;;;;;;5107368;27;20474;-84
2023/04/23 01:11:53;;;;;;;4.93;1.85;;;8.10;99.90;;;;;;5080766;28;20032;-84
2023/04/23 01:14:19;;;;;;;3.55;2.10;;;8.00;99.90;;;;;;5110344;27;20446;-84
2023/04/23 01:16:45;;;;;;;3.67;2.00;;;8.00;99.90;;;;;;5116491;27;20027;-83
2023/04/23 01:19:11;;;;;;;3.20;1.80;;;8.00;99.90;;;;;;5107075;28;20501;-84
2023/04/23 01:21:41;;;;;;;3.05;1.52;;;8.10;99.90;;;;;;5096199;28;20047;-84
2023/04/23 01:24:08;;;;;;;4.80;1.80;;;8.10;99.90;;;;;;5080036;28;20448;-84
2023/04/23 01:26:34;;;;;;;5.13;1.77;;;8.10;99.90;;;;;;5100555;28;20063;-84
2023/04/23 01:29:00;;;;;;;4.30;1.70;;;8.10;99.90;;;;;;5106292;28;20109;-84
2023/04/23 01:31:27;;;;;;;2.58;1.42;;;8.10;99.90;;;;;;5091427;28;20067;-84
2023/04/23 01:33:54;;;;;;;5.35;1.90;;;8.10;99.90;;;;;;5076717;28;20068;-83
2023/04/23 01:36:23;;;;;;;4.70;1.80;;;8.10;99.90;;;;;;5076665;28;20110;-83
2023/04/23 01:38:50;;;;;;;3.42;1.90;;;8.00;99.90;;;;;;5076924;28;20097;-84
2023/04/23 01:41:15;;;;;;;3.15;1.38;;;8.00;99.90;;;;;;5108601;28;20062;-84
2023/04/23 01:43:45;;;;;;;3.10;1.80;;;8.00;99.90;;;;;;5082167;28;20036;-84
2023/04/23 01:46:11;;;;;;;6.22;2.75;;;8.00;99.90;;;;;;5086705;28;20100;-84
2023/04/23 01:48:37;;;;;;;9.52;3.88;;;7.90;99.90;;;;;;5116151;28;20496;-83
2023/04/23 01:51:03;;;;;;;10.48;4.20;;;7.80;99.90;;;;;;5089199;28;20035;-84
2023/04/23 01:53:29;;;;;;;7.18;3.67;;;7.70;99.90;;;;;;5089258;28;20105;-83
2023/04/23 01:55:56;;;;;;;8.63;3.65;;;7.60;99.90;;;;;;5107259;28;20459;-83
2023/04/23 01:58:22;;;;;;;10.93;6.88;;;7.50;99.90;;;;;;5087507;28;20032;-83
2023/04/23 02:00:49;;;;;;;20.98;12.63;;;7.50;99.90;;;;;;5079485;28;20036;-84
2023/04/23 02:03:15;;;;;;;24.77;11.35;;;7.50;99.90;;;;;;5084236;28;20032;-83
2023/04/23 02:05:41;;;;;;;16.67;7.30;;;7.50;99.90;;;;;;5102677;27;20032;-84
2023/04/23 02:08:07;;;;;;;11.32;5.80;;;7.50;99.90;;;;;;5122275;27;20577;-83
2023/04/23 02:10:33;;;;;;;10.25;5.68;;;7.40;99.90;;;;;;5075229;28;20398;-83
2023/04/23 02:13:01;;;;;;;7.82;4.10;;;7.40;99.90;;;;;;5086922;28;20031;-83
2023/04/23 02:15:28;;;;;;;5.18;2.90;;;7.40;99.90;;;;;;5107130;27;20051;-84
2023/04/23 02:17:54;;;;;;;5.03;2.33;;;7.30;99.90;;;;;;5087016;28;20038;-84
2023/04/23 02:20:20;;;;;;;3.17;2.03;;;7.30;99.90;;;;;;5103076;28;20476;-84
2023/04/23 02:22:47;;;;;;;3.17;1.75;;;7.30;99.90;;;;;;5098576;27;20122;-83
2023/04/23 02:25:15;;;;;;;4.53;1.65;;;7.30;99.90;;;;;;5105469;28;20090;-84
2023/04/23 02:27:41;;;;;;;2.83;1.60;;;7.30;99.90;;;;;;5098194;28;20118;-84
2023/04/23 02:30:08;;;;;;;3.92;1.90;;;7.30;99.90;;;;;;5082963;28;20110;-84
2023/04/23 02:32:35;;;;;;;3.47;1.90;;;7.30;99.90;;;;;;5090138;28;20044;-84
2023/04/23 02:35:02;;;;;;;3.35;1.77;;;7.20;99.90;;;;;;5104765;28;20503;-84
2023/04/23 02:37:27;;;;;;;3.50;2.05;;;7.20;99.90;;;;;;5086260;28;20454;-84
2023/04/23 02:39:53;;;;;;;3.00;1.77;;;7.20;99.90;;;;;;5097081;28;20074;-84
2023/04/23 02:42:19;;;;;;;4.90;2.17;;;7.20;99.90;;;;;;5094583;28;20032;-84
2023/04/23 02:44:45;;;;;;;5.38;2.30;;;7.20;99.90;;;;;;5092645;28;20036;-84
2023/04/23 02:47:10;;;;;;;3.85;2.60;;;7.20;99.90;;;;;;5098201;28;20031;-84
2023/04/23 02:49:36;;;;;;;4.50;2.60;;;7.10;99.90;;;;;;5098400;28;20569;-84
2023/04/23 02:52:02;;;;;;;5.07;2.17;;;7.10;99.90;;;;;;5063666;28;20105;-84
2023/04/23 02:54:28;;;;;;;3.53;2.00;;;7.00;99.90;;;;;;5096190;28;20035;-83
2023/04/23 02:56:53;;;;;;;4.13;2.20;;;6.90;99.90;;;;;;5083217;28;20035;-84
2023/04/23 02:59:19;;;;;;;3.97;1.95;;;6.90;99.90;;;;;;5077411;28;20537;-83
2023/04/23 03:01:45;;;;;;;3.53;2.15;;;6.80;99.90;;;;;;5070158;28;20035;-84
2023/04/23 03:04:11;;;;;;;5.15;2.30;;;6.70;99.90;;;;;;5096633;28;20401;-84
2023/04/23 03:06:36;;;;;;;4.30;2.10;;;6.70;99.90;;;;;;5098463;28;20441;-84
2023/04/23 03:09:02;;;;;;;5.28;2.15;;;6.70;99.90;;;;;;5097959;28;20370;-84
2023/04/23 03:11:28;;;;;;;3.72;2.00;;;6.70;99.90;;;;;;5098912;28;20393;-83
2023/04/23 03:13:54;;;;;;;4.53;2.00;;;6.70;99.90;;;;;;5108484;28;20114;-84
2023/04/23 03:16:20;;;;;;;3.15;2.10;;;6.70;99.90;;;;;;5107309;28;20044;-84
2023/04/23 03:18:45;;;;;;;3.75;2.00;;;6.60;99.90;;;;;;5080633;28;20035;-84
2023/04/23 03:21:11;;;;;;;4.10;2.20;;;6.50;99.90;;;;;;5097352;28;20035;-84
2023/04/23 03:23:37;;;;;;;4.53;2.25;;;6.50;99.90;;;;;;5079151;28;20071;-83
2023/04/23 03:26:03;;;;;;;8.27;3.85;;;6.50;99.90;;;;;;5100526;28;20035;-84
2023/04/23 03:28:30;;;;;;;3.10;1.88;;;6.50;99.90;;;;;;5088095;28;20449;-84
2023/04/23 03:30:55;;;;;;;4.43;1.70;;;6.50;99.90;;;;;;5115903;28;20034;-84
2023/04/23 03:33:21;;;;;;;4.45;2.00;;;6.60;99.90;;;;;;5053599;28;1192434;-84
2023/04/23 03:35:47;;;;;;;3.15;1.83;;;6.60;99.90;;;;;;5077562;28;20509;-84
2023/04/23 03:38:13;;;;;;;4.55;1.80;;;6.60;99.90;;;;;;5084323;28;20139;-83
2023/04/23 03:40:38;;;;;;;3.10;1.92;;;6.70;99.90;;;;;;5081578;28;20035;-84
2023/04/23 03:43:04;;;;;;;4.28;2.03;;;6.70;99.90;;;;;;5059223;28;20043;-84
2023/04/23 03:45:30;;;;;;;4.72;2.15;;;6.70;99.90;;;;;;5099816;27;20445;-84
2023/04/23 03:47:55;;;;;;;4.25;2.47;;;6.70;99.90;;;;;;5119229;27;20031;-84
2023/04/23 03:50:21;;;;;;;4.82;2.30;;;6.70;99.90;;;;;;5100091;28;20107;-84
2023/04/23 03:52:47;;;;;;;14.02;7.15;;;6.70;99.90;;;;;;5075225;28;20039;-84
2023/04/23 03:55:12;;;;;;;19.65;9.52;;;6.70;99.90;;;;;;5132202;27;20481;-84
2023/04/23 03:57:38;;;;;;;12.80;6.80;;;6.70;99.90;;;;;;5085042;27;20105;-84
2023/04/23 04:00:10;;;;;;;10.27;4.95;;;6.70;99.90;;;;;;5123386;27;20043;-84
2023/04/23 04:02:37;;;;;;;5.80;2.90;;;6.60;99.90;;;;;;5098362;28;20036;-84
2023/04/23 04:05:02;;;;;;;4.35;2.72;;;6.60;99.90;;;;;;5064388;28;20039;-84
2023/04/23 04:07:28;;;;;;;4.40;2.83;;;6.60;99.90;;;;;;5060923;28;20032;-84
2023/04/23 04:09:54;;;;;;;6.15;2.60;;;6.60;99.90;;;;;;5060016;28;20086;-84
2023/04/23 04:12:20;;;;;;;5.88;3.03;;;6.60;99.90;;;;;;5067693;28;20086;-84
2023/04/23 04:14:45;;;;;;;6.55;2.92;;;6.50;99.90;;;;;;5065164;28;20046;-84
2023/04/23 04:17:13;;;;;;;8.80;2.67;;;6.60;99.90;;;;;;5078278;28;20032;-84
2023/04/23 04:19:39;;;;;;;6.55;3.10;;;6.50;99.90;;;;;;5097899;28;20027;-78
2023/04/23 04:22:05;;;;;;;6.50;3.22;;;6.50;99.90;;;;;;5097648;28;20160;-78
2023/04/23 04:24:31;;;;;;;10.18;3.78;;;6.50;99.90;;;;;;5111611;28;20032;-78
2023/04/23 04:27:01;;;;;;;10.23;5.45;;;6.50;99.90;;;;;;5089450;28;20040;-78
2023/04/23 04:29:27;;;;;;;12.23;5.70;;;6.40;99.90;;;;;;5097494;28;20114;-78
2023/04/23 04:31:54;;;;;;;42.38;16.55;;;6.40;99.90;;;;;;5115573;28;20112;-78
2023/04/23 04:34:20;;;;;;;24.73;10.27;;;6.40;99.90;;;;;;5113730;27;20035;-78
2023/04/23 04:36:46;;;;;;;17.67;9.07;;;6.50;99.90;;;;;;5094004;28;20432;-78
2023/04/23 04:39:13;;;;;;;17.63;8.60;;;6.50;99.90;;;;;;5077375;28;20490;-78
2023/04/23 04:41:40;;;;;;;15.07;7.55;;;6.50;99.90;;;;;;5077084;28;20492;-78
2023/04/23 04:44:09;;;;;;;9.85;5.72;;;6.50;99.90;;;;;;5111565;27;20055;-78
2023/04/23 04:46:39;;;;;;;8.90;3.50;;;6.60;99.90;;;;;;5109932;28;20063;-78
2023/04/23 04:49:11;;;;;;;8.07;2.95;;;6.50;99.90;;;;;;5115687;28;20031;-78
2023/04/23 04:51:37;;;;;;;4.47;2.72;;;6.60;99.90;;;;;;5089446;28;20036;-78
2023/04/23 04:54:06;;;;;;;4.53;2.58;;;6.60;99.90;;;;;;5094359;28;20034;-78
2023/04/23 04:56:35;;;;;;;4.80;2.47;;;6.60;99.90;;;;;;5111667;28;20035;-78
2023/04/23 04:59:01;;;;;;;5.03;2.65;;;6.70;99.90;;;;;;5101414;28;20036;-80
2023/04/23 05:01:27;;;;;;;5.93;2.30;;;6.80;99.90;;;;;;5111867;28;20504;-80
2023/04/23 05:03:54;;;;;;;5.07;2.42;;;6.90;99.90;;;;;;5114271;27;20039;-78
2023/04/23 05:06:20;;;;;;;4.85;3.20;;;6.90;99.90;;;;;;5110121;27;20039;-78
2023/04/23 05:08:47;;;;;;;5.18;3.10;;;6.90;99.90;;;;;;5096299;28;20028;-77
2023/04/23 05:11:17;;;;;;;6.50;3.53;;;6.90;99.90;;;;;;5087462;28;20043;-78
2023/04/23 05:13:44;;;;;;;6.10;3.40;;;6.90;99.90;;;;;;5098053;28;20073;-79
2023/04/23 05:16:10;;;;;;;5.10;3.10;;;6.90;99.90;;;;;;5107311;28;20524;-78
2023/04/23 05:18:37;;;;;;;5.90;3.20;;;6.90;99.90;;;;;;5088888;28;20513;-77
2023/04/23 05:21:03;;;;;;;6.07;3.05;;;6.80;99.90;;;;;;5099241;28;20035;-77
2023/04/23 05:23:29;;;;;;;4.72;3.10;;;6.90;99.90;;;;;;5099018;28;20056;-78
2023/04/23 05:25:55;;;;;;;4.45;2.67;;;6.90;99.90;;;;;;5099937;28;20071;-78
2023/04/23 05:28:21;;;;;;;5.53;3.13;;;7.00;99.90;;;;;;5084515;28;20115;-77
2023/04/23 05:30:48;;;;;;;4.05;2.50;;;7.00;99.90;;;;;;5120338;28;20037;-77
2023/04/23 05:33:14;;;;;;;4.75;2.85;;;7.10;99.90;;;;;;5075044;28;20043;-77
2023/04/23 05:35:40;;;;;;;6.32;2.88;;;7.10;99.90;;;;;;5059040;28;20040;-78
2023/04/23 05:38:06;;;;;;;8.30;3.72;;;7.20;99.90;;;;;;5064888;28;20047;-77
2023/04/23 05:40:32;;;;;;;25.25;18.05;;;7.20;99.90;;;;;;5103427;28;21797;-78
2023/04/23 05:42:58;;;;;;;11.27;8.30;;;7.30;99.90;;;;;;5098894;28;20035;-79
2023/04/23 05:45:24;;;;;;;9.30;5.82;;;7.30;99.90;;;;;;5099157;28;20103;-77
2023/04/23 05:47:50;;;;;;;9.85;6.10;;;7.40;99.90;;;;;;5075351;28;20060;-79
2023/04/23 05:50:16;;;;;;;6.75;4.20;;;7.40;99.90;;;;;;5074947;28;20028;-77
2023/04/23 05:52:42;;;;;;;5.35;3.60;;;7.40;99.90;;;;;;5108995;28;20024;-77
2023/04/23 05:55:08;;;;;;;6.20;4.18;;;7.40;99.90;;;;;;5089063;28;20047;-77
2023/04/23 05:57:35;;;;;;;7.25;4.25;;;7.50;99.90;;;;;;5090908;28;20521;-78
2023/04/23 06:00:04;;;;;;;10.02;5.25;;;7.50;99.90;;;;;;5080556;28;20031;-78
2023/04/23 06:02:30;;;;;;;9.52;4.85;;;7.50;99.90;;;;;;5092138;28;20043;-78
2023/04/23 06:04:55;;;;;;;6.90;4.13;;;7.60;99.90;;;;;;5093941;28;20048;-78
2023/04/23 06:07:21;;;;;;;8.27;4.85;;;7.60;99.90;;;;;;5107733;28;20047;-78
2023/04/23 06:09:47;;;;;;;6.45;4.22;;;7.70;99.90;;;;;;5113487;28;20091;-78
2023/04/23 06:12:13;;;;;;;6.95;4.55;;;7.60;99.90;;;;;;5099627;28;20115;-78
2023/04/23 06:14:38;;;;;;;9.93;6.50;;;7.60;99.90;;;;;;5076337;28;20036;-77
2023/04/23 06:17:05;;;;;;;6.30;4.75;;;7.70;99.90;;;;;;5104461;28;20035;-77
2023/04/23 06:19:30;;;;;;;8.43;5.05;;;7.70;99.90;;;;;;5110885;28;20027;-78
2023/04/23 06:21:56;;;;;;;12.18;6.97;;;7.80;99.90;;;;;;5094215;28;20063;-77
2023/04/23 06:24:22;;;;;;;33.17;14.07;;;7.80;99.90;;;;;;5073716;28;20093;-78
2023/04/23 06:26:48;;;;;;;15.10;8.55;;;7.90;99.90;;;;;;5111049;28;20028;-78
2023/04/23 06:29:13;;;;;;;8.98;5.75;;;8.00;99.90;;;;;;5113370;28;20127;-79
2023/04/23 06:31:40;;;;;;;10.18;5.57;;;8.00;99.90;;;;;;5111326;28;20628;-79
2023/04/23 06:34:06;;;;;;;9.05;5.45;;;8.00;99.90;;;;;;5115118;27;20105;-77
2023/04/23 06:36:32;;;;;;;11.82;5.43;;;8.10;99.90;;;;;;5086789;28;20081;-77
2023/04/23 06:38:58;;;;;;;11.50;5.60;;;8.10;99.90;;;;;;5114759;27;20059;-77
2023/04/23 06:41:24;;;;;;;8.23;5.25;;;8.20;99.90;;;;;;5086317;28;20028;-77
2023/04/23 06:43:50;;;;;;;8.55;4.82;;;8.30;99.90;;;;;;5115923;28;20040;-77
2023/04/23 06:46:15;;;;;;;7.70;4.72;;;8.40;99.90;;;;;;5097420;28;20036;-79
2023/04/23 06:48:41;;;;;;;6.95;4.13;;;8.40;99.90;;;;;;5103200;23;20041;-79
2023/04/23 06:51:07;;;;;;;9.73;4.40;;;8.50;99.90;;;;;;5054470;28;20040;-79
2023/04/23 06:53:33;;;;;;;8.40;4.55;;;8.50;99.90;;;;;;5066425;28;20025;-79
2023/04/23 06:55:58;;;;;;;7.25;3.97;;;8.60;99.90;;;;;;5045290;28;20118;-79
2023/04/23 06:58:29;;;;;;;10.57;5.78;;;8.70;99.90;;;;;;5052920;28;20049;-78
2023/04/23 07:00:56;;;;;;;;;;;8.80;99.90;;;;;;5030415;28;20025;-79
2023/04/23 07:03:22;;;;;;;13.00;6.22;;;8.90;99.90;;;;;;5061294;28;19995;-79
2023/04/23 07:05:48;;;;;;;8.27;5.40;;;9.00;99.90;;;;;;5034320;28;20235;-79
2023/04/23 07:08:13;;;;;;;11.20;6.40;;;9.10;99.90;;;;;;5028543;28;20037;-79
2023/04/23 07:10:39;;;;;;;12.27;6.40;;;9.30;99.90;;;;;;5038288;28;20114;-79
2023/04/23 07:13:05;;;;;;;13.18;6.95;;;9.50;99.90;;;;;;5040426;28;20033;-79
2023/04/23 07:15:31;;;;;;;11.05;6.30;;;9.60;99.90;;;;;;5071693;28;20040;-79
2023/04/23 07:17:56;;;;;;;10.82;6.95;;;9.80;99.90;;;;;;5067813;28;20037;-79
2023/04/23 07:20:22;;;;;;;10.50;6.88;;;9.90;99.90;;;;;;5059980;28;20040;-79
2023/04/23 07:22:48;;;;;;;10.82;7.43;;;10.00;99.90;;;;;;5061939;28;20056;-79
2023/04/23 07:25:15;;;;;;;14.35;7.57;;;10.10;99.90;;;;;;5027294;28;20037;-79
2023/04/23 07:27:40;;;;;;;11.07;7.35;;;10.20;99.90;;;;;;5036859;28;20037;-79
2023/04/23 07:30:07;;;;;;;10.70;6.65;;;10.30;99.90;;;;;;5062857;28;20087;-78
2023/04/23 07:32:32;;;;;;;10.85;7.18;;;10.50;99.90;;;;;;5061873;28;20037;-79
2023/04/23 07:34:58;;;;;;;11.98;7.13;;;10.50;99.90;;;;;;5036352;28;20045;-79
2023/04/23 07:37:23;;;;;;;11.95;6.47;;;10.60;99.90;;;;;;5065093;28;20041;-80
2023/04/23 07:39:49;;;;;;;11.55;6.95;;;10.70;99.90;;;;;;5038019;28;20119;-79
2023/04/23 07:42:15;;;;;;;14.88;7.32;;;10.70;99.90;;;;;;5050195;28;20041;-79
2023/04/23 07:44:41;;;;;;;10.90;6.70;;;10.90;99.90;;;;;;5038667;28;20513;-80
2023/04/23 07:47:06;;;;;;;7.40;5.30;;;11.00;99.90;;;;;;5032282;28;20040;-79
2023/04/23 07:49:32;;;;;;;9.63;5.10;;;11.10;99.90;;;;;;5023442;28;20100;-79
2023/04/23 07:51:59;;;;;;;6.82;3.58;;;11.20;99.90;;;;;;5031148;28;20174;-79
2023/04/23 07:54:25;;;;;;;7.82;4.00;;;11.30;99.90;;;;;;5048108;28;20033;-78
2023/04/23 07:56:51;;;;;;;7.40;4.43;;;11.40;99.90;;;;;;5049332;28;20432;-79
2023/04/23 07:59:17;;;;;;;6.97;4.65;;;11.60;99.90;;;;;;5044381;28;20040;-78
2023/04/23 08:01:42;;;;;;;9.70;6.00;;;11.70;99.90;;;;;;5051141;28;20045;-79
2023/04/23 08:04:08;;;;;;;9.95;5.88;;;11.90;99.90;;;;;;5042365;28;20041;-78
2023/04/23 08:06:35;;;;;;;11.80;5.85;;;12.00;99.90;;;;;;5057151;28;20048;-79
2023/04/23 08:09:05;;;;;;;9.60;5.72;;;12.30;99.90;;;;;;5055798;28;20132;-79
2023/04/23 08:11:31;;;;;;;8.15;5.38;;;12.50;99.90;;;;;;5062208;28;20108;-79
2023/04/23 08:13:57;;;;;;;10.30;5.82;;;12.60;99.90;;;;;;5043475;28;20536;-79
2023/04/23 08:16:22;;;;;;;9.25;5.10;;;12.70;99.90;;;;;;5064766;28;20037;-79
2023/04/23 08:18:48;;;;;;;8.48;5.03;;;12.80;99.90;;;;;;5058983;28;20037;-79
2023/04/23 08:21:14;;;;;;;8.25;4.80;;;12.80;99.90;;;;;;5037433;28;20047;-79
2023/04/23 08:23:40;;;;;;;8.60;5.07;;;13.00;99.90;;;;;;5043698;28;20093;-79
2023/04/23 08:26:06;;;;;;;8.07;4.82;;;13.20;99.90;;;;;;5056429;28;20037;-77
2023/04/23 08:28:31;;;;;;;8.70;4.30;;;13.30;99.90;;;;;;5032588;28;20044;-76
2023/04/23 08:30:57;;;;;;;5.88;4.03;;;13.40;99.90;;;;;;5045948;28;20041;-76
2023/04/23 08:33:23;;;;;;;6.40;4.38;;;13.60;99.90;;;;;;5046548;28;20056;-76
2023/04/23 08:35:49;;;;;;;8.23;4.57;;;13.80;99.90;;;;;;5059963;28;20045;-77
2023/04/23 08:38:14;;;;;;;6.10;4.30;;;14.00;99.90;;;;;;5046956;28;20045;-76
2023/04/23 08:40:41;;;;;;;7.78;4.32;;;14.10;99.90;;;;;;5017726;28;20079;-76
2023/04/23 08:43:17;;;;;;;6.78;3.63;;;14.10;99.90;;;;;;5042039;28;20037;-77
2023/04/23 08:45:46;;;;;;;7.28;4.32;;;14.30;99.90;;;;;;5067266;28;20037;-77
2023/04/23 08:48:13;;;;;;;7.90;3.80;;;14.50;99.90;;;;;;5047642;28;20115;-76
2023/04/23 08:50:42;;;;;;;4.95;3.50;;;14.70;99.90;;;;;;5063096;28;20073;-76
2023/04/23 08:53:08;;;;;;;5.30;3.97;;;14.90;99.90;;;;;;5040038;28;20061;-76
2023/04/23 08:55:35;;;;;;;9.30;3.67;;;15.10;99.90;;;;;;5059456;28;20475;-76
2023/04/23 08:58:05;;;;;;;7.03;3.30;;;15.20;99.90;;;;;;5041162;28;20529;-75
2023/04/23 09:00:33;;;;;;;6.80;3.50;;;15.30;99.90;;;;;;5058701;28;20029;-76
2023/04/23 09:02:59;;;;;;;5.38;3.33;;;15.50;99.90;;;;;;5050559;28;20044;-76
2023/04/23 09:05:26;;;;;;;6.57;3.28;;;15.70;99.90;;;;;;5061760;28;20033;-76
2023/04/23 09:07:53;;;;;;;5.15;3.28;;;15.80;99.90;;;;;;5037780;28;20033;-76
2023/04/23 09:10:19;;;;;;;8.63;3.50;;;15.90;99.90;;;;;;5039846;28;20490;-76
2023/04/23 09:12:46;;;;;;;4.78;3.00;;;16.00;99.90;;;;;;5036443;28;20033;-76
2023/04/23 09:15:12;;;;;;;8.85;4.75;;;16.10;99.90;;;;;;5043106;28;20113;-76
2023/04/23 09:17:40;;;;;;;6.10;2.92;;;16.20;99.90;;;;;;5041952;28;20037;-76
2023/04/23 09:20:09;;;;;;;5.18;3.22;;;16.40;99.90;;;;;;5062308;28;20082;-76
2023/04/23 09:22:46;;;;;;;6.35;2.92;;;16.50;99.90;;;;;;5062242;28;20029;-76
2023/04/23 09:25:15;;;;;;;5.20;2.90;;;16.60;99.90;;;;;;5053059;28;20033;-76
2023/04/23 09:27:41;;;;;;;6.90;2.30;;;16.70;99.90;;;;;;5036083;28;20029;-76
2023/04/23 09:30:09;;;;;;;6.05;2.80;;;16.80;99.90;;;;;;5053108;28;20090;-76
2023/04/23 09:32:36;;;;;;;5.15;2.75;;;16.90;99.90;;;;;;5053063;28;20036;-76
2023/04/23 09:35:10;;;;;;;5.30;2.17;;;17.10;99.90;;;;;;5057872;28;20521;-76
2023/04/23 09:37:36;;;;;;;46.80;22.70;;;17.30;98.40;;;;;;5073584;28;20106;-76
2023/04/23 09:40:08;;;;;;;239.32;104.95;;;17.30;98.60;;;;;;5055133;28;20064;-76
2023/04/23 09:42:35;;;;;;;13.85;9.50;;;17.40;99.00;;;;;;5055184;28;20032;-76
2023/04/23 09:45:12;;;;;;;30.30;11.65;;;17.40;97.50;;;;;;5055078;28;20036;-76
2023/04/23 09:47:40;;;;;;;6.95;3.20;;;17.50;97.00;;;;;;5074240;28;20417;-76
2023/04/23 09:50:09;;;;;;;6.28;2.05;;;17.50;95.50;;;;;;5054829;28;20124;-76
2023/04/23 09:52:38;;;;;;;4.50;2.40;;;17.60;94.90;;;;;;5072932;28;20020;-76
2023/04/23 09:55:05;;;;;;;24.95;4.78;;;17.60;94.30;;;;;;5069799;28;20036;-76
2023/04/23 09:57:37;;;;;;;5.28;1.98;;;17.70;95.60;;;;;;5074932;28;20569;-76
2023/04/23 10:00:19;;;;;;;5.63;1.95;;;17.80;95.30;;;;;;5093290;28;20058;-76
2023/04/23 10:02:49;;;;;;;55.45;23.02;;;17.80;94.80;;;;;;5062884;28;20068;-76
2023/04/23 10:05:19;;;;;;;24.83;7.30;;;17.90;95.90;;;;;;5060519;28;20036;-76
2023/04/23 10:07:49;;;;;;;5.03;2.42;;;18.00;95.50;;;;;;5065898;28;20024;-76
2023/04/23 10:10:16;;;;;;;5.53;2.08;;;18.10;94.50;;;;;;5060095;28;20037;-76
2023/04/23 10:12:43;;;;;;;4.07;1.98;;;18.10;94.30;;;;;;5026862;28;20372;-76
2023/04/23 10:15:10;;;;;;;3.65;2.13;;;18.20;93.50;;;;;;5047576;28;20105;-76
2023/04/23 10:17:36;;;;;;;5.75;2.10;;;18.30;94.10;;;;;;5019683;28;20041;-76
2023/04/23 10:20:03;;;;;;;5.78;2.00;;;18.40;92.10;;;;;;5060718;28;20033;-76
2023/04/23 10:22:30;;;;;;;4.50;2.08;;;18.60;91.70;;;;;;5042220;28;20037;-75
2023/04/23 10:24:57;;;;;;;5.85;2.10;;;18.70;91.90;;;;;;5064733;28;20044;-75
2023/04/23 10:27:28;;;;;;;2.90;1.80;;;18.80;91.70;;;;;;5047815;28;20112;-76
2023/04/23 10:29:55;;;;;;;;;;;18.80;91.60;;;;;;5039494;28;20038;-76
2023/04/23 10:32:22;;;;;;;4.65;2.17;;;18.80;91.60;;;;;;5063182;28;20322;-76
2023/04/23 10:34:49;;;;;;;3.60;2.03;;;18.90;91.10;;;;;;5069834;28;20072;-76
2023/04/23 10:37:18;;;;;;;5.30;2.22;;;19.00;90.30;;;;;;5054278;28;20033;-76
2023/04/23 10:39:48;;;;;;;4.78;1.98;;;19.10;91.50;;;;;;5057223;28;20033;-76
2023/04/23 10:42:18;;;;;;;3.03;1.92;;;19.10;91.00;;;;;;5062281;28;20156;-76
2023/04/23 10:44:44;;;;;;;14.25;4.43;;;19.20;86.80;;;;;;5050279;28;20036;-76
2023/04/23 10:47:16;;;;;;;5.30;2.58;;;19.30;86.40;;;;;;5070800;28;20546;-76
2023/04/23 10:49:43;;;;;;;4.72;1.85;;;19.40;85.70;;;;;;5047022;28;20041;-76
2023/04/23 10:52:13;;;;;;;3.05;1.73;;;19.50;84.20;;;;;;5062900;28;20104;-76
2023/04/23 10:54:40;;;;;;;3.72;1.77;;;19.70;81.00;;;;;;5070711;28;20494;-76
2023/04/23 10:57:07;;;;;;;4.43;1.85;;;19.80;80.70;;;;;;5047731;28;20029;-76
2023/04/23 10:59:37;;;;;;;3.17;1.90;;;19.80;81.10;;;;;;5058521;28;20040;-75
2023/04/23 11:02:13;;;;;;;2.93;1.63;;;19.90;81.30;;;;;;5062688;28;20043;-75
2023/04/23 11:04:45;;;;;;;3.28;1.80;;;20.00;82.30;;;;;;5073570;28;20132;-76
2023/04/23 11:07:11;;;;;;;4.10;1.90;;;20.10;84.00;;;;;;5088345;28;20032;-76
2023/04/23 11:09:41;;;;;;;5.00;1.75;;;20.30;80.60;;;;;;5068220;28;20501;-76
2023/04/23 11:12:26;;;;;;;3.30;1.83;;;20.40;82.20;;;;;;5078363;28;20037;-76
2023/04/23 11:14:54;;;;;;;2.75;1.58;;;20.60;81.40;;;;;;5057305;28;20554;-76
2023/04/23 11:17:42;;;;;;;3.50;1.58;;;20.80;82.00;;;;;;5087323;28;20473;-76
2023/04/23 11:20:22;;;;;;;2.83;1.70;;;20.90;79.10;;;;;;5070095;28;20040;-76
2023/04/23 11:22:52;;;;;;;3.38;1.73;;;20.90;75.70;;;;;;5055263;28;20036;-76
2023/04/23 11:25:29;;;;;;;3.08;1.73;;;21.00;75.50;;;;;;5061463;28;20029;-76
2023/04/23 11:27:57;;;;;;;5.88;1.83;;;20.90;76.60;;;;;;5042456;28;20040;-75
2023/04/23 11:30:25;;;;;;;3.65;1.58;;;20.90;72.10;;;;;;5059525;28;20029;-76
2023/04/23 11:32:53;;;;;;;5.82;2.10;;;20.80;75.20;;;;;;5041469;28;20124;-76
2023/04/23 11:35:28;;;;;;;2.47;1.50;;;20.90;72.40;;;;;;5054551;28;20041;-76
2023/04/23 11:37:55;;;;;;;3.03;1.60;;;20.90;72.30;;;;;;5061640;28;20028;-76
2023/04/23 11:40:23;;;;;;;4.85;1.88;;;20.90;69.60;;;;;;5067738;28;20048;-76
2023/04/23 11:42:56;;;;;;;4.18;1.70;;;20.80;69.50;;;;;;5065558;28;20037;-76
2023/04/23 11:45:24;;;;;;;3.22;1.50;;;20.60;67.70;;;;;;5020572;28;20402;-76
2023/04/23 11:47:59;;;;;;;4.05;1.23;;;20.60;71.40;;;;;;5054952;28;20021;-76
2023/04/23 11:50:29;;;;;;;3.83;1.55;;;20.50;72.00;;;;;;5057311;28;20033;-76
2023/04/23 11:52:55;;;;;;;3.83;1.43;;;20.50;70.90;;;;;;5061054;28;20025;-76
2023/04/23 11:55:22;;;;;;;3.20;1.60;;;20.40;72.20;;;;;;5059370;28;20279;-76
2023/04/23 11:57:50;;;;;;;4.03;1.77;;;20.40;73.40;;;;;;5063836;28;20060;-76
2023/04/23 12:00:25;;;;;;;3.00;1.90;;;20.30;74.00;;;;;;5062435;28;20435;-76
2023/04/23 12:02:59;;;;;;;3.88;1.60;;;20.30;76.90;;;;;;5054648;28;20490;-76
2023/04/23 12:05:57;;;;;;;2.92;1.63;;;20.40;77.40;;;;;;5041316;28;20064;-76
2023/04/23 12:08:23;;;;;;;3.72;1.80;;;20.50;75.50;;;;;;5066011;28;20040;-76
2023/04/23 12:10:50;;;;;;;3.58;1.33;;;20.50;75.00;;;;;;5065779;28;20033;-76
2023/04/23 12:13:39;;;;;;;3.45;1.90;;;20.40;74.70;;;;;;5065431;28;21137;-76
2023/04/23 12:16:05;;;;;;;3.10;1.88;;;20.40;72.70;;;;;;5054340;28;20347;-76
2023/04/23 12:18:34;;;;;;;4.50;2.22;;;20.30;72.50;;;;;;5036872;28;20052;-76
2023/04/23 12:21:08;;;;;;;3.85;2.00;;;20.20;72.90;;;;;;5042240;28;20083;-75
2023/04/23 12:23:35;;;;;;;3.85;2.13;;;20.50;75.50;;;;;;5075568;28;20498;-76
2023/04/23 12:26:02;;;;;;;2.97;1.60;;;20.70;71.10;;;;;;5062790;28;20064;-75
2023/04/23 12:28:28;;;;;;;3.17;1.92;;;21.00;72.90;;;;;;5059715;28;20021;-76
2023/04/23 12:30:59;;;;;;;2.72;1.60;;;21.20;71.00;;;;;;5060053;28;20037;-76
2023/04/23 12:33:28;;;;;;;3.92;1.80;;;21.30;69.30;;;;;;5057719;28;20017;-76
2023/04/23 12:35:54;;;;;;;3.55;1.63;;;21.40;72.80;;;;;;5030661;28;20498;-76
2023/04/23 12:38:24;;;;;;;2.47;1.50;;;21.40;68.30;;;;;;5035355;28;20044;-76
2023/04/23 12:41:00;;;;;;;3.83;1.90;;;21.50;73.00;;;;;;5061073;28;20032;-76
2023/04/23 12:43:26;;;;;;;2.90;1.55;;;21.60;75.70;;;;;;5058924;28;20048;-75
2023/04/23 12:45:53;;;;;;;6.35;3.17;;;21.70;65.60;;;;;;5045033;28;20514;-76
2023/04/23 12:48:19;;;;;;;7.00;2.40;;;21.60;66.90;;;;;;5062223;28;20067;-77
2023/04/23 12:50:45;;;;;;;3.80;1.50;;;21.60;65.80;;;;;;5058538;28;19959;-75